PWSweather.com
Personal Weather Stations
Station Observations
OBERT
Bodensee Hinterland, OberteuringenDE

Bodensee HinterlandOberteuringenDE

Lat: 47.714675, Lon: 9.44447

Elevation: 1427

Station Type: Wunder Weather Station

High Low Average
Temperature 50.7°F10.4°C 46.4°F8.0°C 48.1°F8.9°C
Dew Point 48.3°F9.1°C 44.3°F6.8°C 46.3°F7.9°C
Winds 10.0 mph 16.1 kmh Calm Calm 4.0 mph N6.4 kmh N
Wind Gusts 21.8 mph35.1 kmh -- 9.0 mph14.5 kmh
Humidity 100% 85% 93%
Pressure 29.70 in1005.8 mb 29.56 in1001.0 mb -
Precipitation 0.00 in0.0 mm - -
Hour Temp Dew Point Humidity Winds Wind Gusts Pressure Precip Precip Rate Daily Precip Total
12:25 AM 47.1°F8.4°C 46.3°F7.9°C 97% Calm Calm -- 29.58 in1001.7 mb 0.00 in0.0 mm 0.00 in0.0 mm 0.00 in0.0 mm
12:55 AM 47.6°F8.7°C 46.1°F7.8°C 94% Calm Calm -- 29.57 in1001.4 mb 0.00 in0.0 mm 0.00 in0.0 mm 0.00 in0.0 mm
01:25 AM 48.7°F9.3°C 47.3°F8.5°C 94% 8.0 mph N12.9 kmh N 15.6 mph25.1 kmh 29.56 in1001.0 mb 0.00 in0.0 mm 0.00 in0.0 mm 0.00 in0.0 mm
01:55 AM 48.3°F9.1°C 47.5°F8.6°C 96% 1.1 mph 1.8 kmh 6.2 mph10.0 kmh 29.57 in1001.4 mb 0.00 in0.0 mm 0.00 in0.0 mm 0.00 in0.0 mm
02:25 AM 48.2°F9.0°C 47.9°F8.8°C 98% 3.9 mph N6.3 kmh N 8.7 mph14.0 kmh 29.56 in1001.0 mb 0.00 in0.0 mm 0.00 in0.0 mm 0.00 in0.0 mm
02:55 AM 48.3°F9.1°C 48.3°F9.1°C 100% 0.1 mph N0.2 kmh N 3.7 mph6.0 kmh 29.56 in1001.0 mb 0.00 in0.0 mm 0.00 in0.0 mm 0.00 in0.0 mm
03:25 AM 47.6°F8.7°C 47.6°F8.7°C 100% Calm Calm 2.1 mph3.4 kmh 29.56 in1001.0 mb 0.00 in0.0 mm 0.00 in0.0 mm 0.00 in0.0 mm
03:55 AM 48.3°F9.1°C 47.9°F8.8°C 98% 5.2 mph N8.4 kmh N 8.7 mph14.0 kmh 29.56 in1001.0 mb 0.00 in0.0 mm 0.00 in0.0 mm 0.00 in0.0 mm
04:25 AM 48.5°F9.2°C 46.9°F8.3°C 94% 3.9 mph N6.3 kmh N 10.0 mph16.1 kmh 29.56 in1001.0 mb 0.00 in0.0 mm 0.00 in0.0 mm 0.00 in0.0 mm
04:55 AM 48.9°F9.4°C 46.9°F8.3°C 92% 3.0 mph N4.8 kmh N 9.0 mph14.5 kmh 29.57 in1001.4 mb 0.00 in0.0 mm 0.00 in0.0 mm 0.00 in0.0 mm
05:25 AM 49.8°F9.9°C 46.7°F8.2°C 89% 9.6 mph 15.4 kmh 17.5 mph28.2 kmh 29.56 in1001.0 mb 0.00 in0.0 mm 0.00 in0.0 mm 0.00 in0.0 mm
05:55 AM 48.5°F9.2°C 47.8°F8.8°C 97% 2.5 mph 4.0 kmh 7.8 mph12.6 kmh 29.57 in1001.4 mb 0.00 in0.0 mm 0.00 in0.0 mm 0.00 in0.0 mm
06:25 AM 47.4°F8.6°C 47.4°F8.6°C 100% 2.7 mph 4.3 kmh 6.5 mph10.5 kmh 29.58 in1001.7 mb 0.00 in0.0 mm 0.00 in0.0 mm 0.00 in0.0 mm
06:55 AM 46.9°F8.3°C 46.9°F8.3°C 100% 3.1 mph 5.0 kmh 7.1 mph11.4 kmh 29.58 in1001.7 mb 0.00 in0.0 mm 0.00 in0.0 mm 0.00 in0.0 mm
07:25 AM 46.9°F8.3°C 46.5°F8.1°C 98% 0.5 mph N0.8 kmh N 3.7 mph6.0 kmh 29.59 in1002.0 mb 0.00 in0.0 mm 0.00 in0.0 mm 0.00 in0.0 mm
07:55 AM 46.4°F8.0°C 46.0°F7.8°C 98% Calm Calm -- 29.59 in1002.0 mb 0.00 in0.0 mm 0.00 in0.0 mm 0.00 in0.0 mm
08:25 AM 47.1°F8.4°C 46.1°F7.8°C 96% Calm Calm -- 29.59 in1002.0 mb 0.00 in0.0 mm 0.00 in0.0 mm 0.00 in0.0 mm
08:55 AM 48.7°F9.3°C 46.0°F7.8°C 90% 2.3 mph 3.7 kmh 6.2 mph10.0 kmh 29.58 in1001.7 mb 0.00 in0.0 mm 0.00 in0.0 mm 0.00 in0.0 mm
09:25 AM 49.6°F9.8°C 46.5°F8.1°C 88% 1.0 mph 1.6 kmh 2.1 mph3.4 kmh 29.58 in1001.7 mb 0.00 in0.0 mm 0.00 in0.0 mm 0.00 in0.0 mm
09:55 AM 49.4°F9.7°C 46.6°F8.1°C 89% 0.7 mph N1.1 kmh N 6.2 mph10.0 kmh 29.59 in1002.0 mb 0.00 in0.0 mm 0.00 in0.0 mm 0.00 in0.0 mm
10:25 AM 50.7°F10.4°C 46.6°F8.1°C 85% 0.8 mph N1.3 kmh N 4.6 mph7.4 kmh 29.60 in1002.4 mb 0.00 in0.0 mm 0.00 in0.0 mm 0.00 in0.0 mm
10:55 AM 49.6°F9.8°C 46.1°F7.8°C 87% 10.0 mph N16.1 kmh N 19.3 mph31.1 kmh 29.61 in1002.7 mb 0.00 in0.0 mm 0.00 in0.0 mm 0.00 in0.0 mm
11:25 AM 49.4°F9.7°C 46.4°F8.0°C 89% 6.1 mph N9.8 kmh N 18.7 mph30.1 kmh 29.61 in1002.7 mb 0.00 in0.0 mm 0.00 in0.0 mm 0.00 in0.0 mm
11:55 AM 49.1°F9.5°C 46.9°F8.3°C 92% 8.4 mph 13.5 kmh 17.5 mph28.2 kmh 29.60 in1002.4 mb 0.00 in0.0 mm 0.00 in0.0 mm 0.00 in0.0 mm
12:25 PM 49.6°F9.8°C 46.9°F8.3°C 90% 8.6 mph N13.8 kmh N 14.6 mph23.5 kmh 29.60 in1002.4 mb 0.00 in0.0 mm 0.00 in0.0 mm 0.00 in0.0 mm
12:55 PM 49.1°F9.5°C 47.0°F8.3°C 92% 3.3 mph 5.3 kmh 7.8 mph12.6 kmh 29.60 in1002.4 mb 0.00 in0.0 mm 0.00 in0.0 mm 0.00 in0.0 mm
01:25 PM 50.1°F10.1°C 47.8°F8.8°C 91% 2.4 mph 3.9 kmh 11.5 mph18.5 kmh 29.60 in1002.4 mb 0.00 in0.0 mm 0.00 in0.0 mm 0.00 in0.0 mm
01:55 PM 49.8°F9.9°C 47.0°F8.3°C 89% 4.8 mph 7.7 kmh 14.3 mph23.0 kmh 29.59 in1002.0 mb 0.00 in0.0 mm 0.00 in0.0 mm 0.00 in0.0 mm
02:25 PM 48.9°F9.4°C 47.2°F8.4°C 93% 7.1 mph 11.4 kmh 14.0 mph22.5 kmh 29.60 in1002.4 mb 0.00 in0.0 mm 0.00 in0.0 mm 0.00 in0.0 mm
02:55 PM 49.1°F9.5°C 47.6°F8.7°C 94% 2.8 mph 4.5 kmh 12.1 mph19.5 kmh 29.61 in1002.7 mb 0.00 in0.0 mm 0.00 in0.0 mm 0.00 in0.0 mm
03:25 PM 48.9°F9.4°C 46.2°F7.9°C 90% 3.5 mph N5.6 kmh N 15.3 mph24.6 kmh 29.62 in1003.0 mb 0.00 in0.0 mm 0.00 in0.0 mm 0.00 in0.0 mm
03:55 PM 48.5°F9.2°C 45.2°F7.3°C 88% 5.7 mph 9.2 kmh 9.6 mph15.4 kmh 29.63 in1003.4 mb 0.00 in0.0 mm 0.00 in0.0 mm 0.00 in0.0 mm
04:25 PM 47.6°F8.7°C 44.6°F7.0°C 89% 3.7 mph N6.0 kmh N 9.6 mph15.4 kmh 29.63 in1003.4 mb 0.00 in0.0 mm 0.00 in0.0 mm 0.00 in0.0 mm
04:37 PM 47.4°F8.6°C 44.4°F6.9°C 89% 3.7 mph 6.0 kmh 8.4 mph13.5 kmh 29.64 in1003.7 mb 0.00 in0.0 mm 0.00 in0.0 mm 0.00 in0.0 mm
05:07 PM 46.9°F8.3°C 44.3°F6.8°C 90% 2.5 mph 4.0 kmh 5.3 mph8.5 kmh 29.64 in1003.7 mb 0.00 in0.0 mm 0.00 in0.0 mm 0.00 in0.0 mm
05:37 PM 47.3°F8.5°C 44.7°F7.1°C 90% 3.6 mph N5.8 kmh N 7.8 mph12.6 kmh 29.65 in1004.1 mb 0.00 in0.0 mm 0.00 in0.0 mm 0.00 in0.0 mm
06:07 PM 47.4°F8.6°C 44.8°F7.1°C 90% 3.3 mph 5.3 kmh 8.4 mph13.5 kmh 29.65 in1004.1 mb 0.00 in0.0 mm 0.00 in0.0 mm 0.00 in0.0 mm
06:37 PM 47.6°F8.7°C 45.0°F7.2°C 90% 9.6 mph N15.4 kmh N 17.8 mph28.6 kmh 29.65 in1004.1 mb 0.00 in0.0 mm 0.00 in0.0 mm 0.00 in0.0 mm
07:07 PM 46.4°F8.0°C 44.9°F7.2°C 94% 5.0 mph 8.0 kmh 21.8 mph35.1 kmh 29.66 in1004.4 mb 0.00 in0.0 mm 0.00 in0.0 mm 0.00 in0.0 mm
07:37 PM 46.5°F8.1°C 45.1°F7.3°C 94% 4.1 mph 6.6 kmh 10.0 mph16.1 kmh 29.67 in1004.7 mb 0.00 in0.0 mm 0.00 in0.0 mm 0.00 in0.0 mm
08:07 PM 46.5°F8.1°C 45.3°F7.4°C 95% 3.3 mph 5.3 kmh 8.4 mph13.5 kmh 29.67 in1004.7 mb 0.00 in0.0 mm 0.00 in0.0 mm 0.00 in0.0 mm
08:37 PM 46.9°F8.3°C 45.3°F7.4°C 94% 2.6 mph 4.2 kmh 7.5 mph12.1 kmh 29.67 in1004.7 mb 0.00 in0.0 mm 0.00 in0.0 mm 0.00 in0.0 mm
09:07 PM 47.1°F8.4°C 45.3°F7.4°C 93% 3.7 mph 6.0 kmh 10.3 mph16.6 kmh 29.68 in1005.1 mb 0.00 in0.0 mm 0.00 in0.0 mm 0.00 in0.0 mm
09:37 PM 46.9°F8.3°C 44.7°F7.1°C 91% 7.6 mph 12.2 kmh 14.3 mph23.0 kmh 29.68 in1005.1 mb 0.00 in0.0 mm 0.00 in0.0 mm 0.00 in0.0 mm
10:08 PM 46.9°F8.3°C 45.1°F7.3°C 93% 3.9 mph 6.3 kmh 13.1 mph21.1 kmh 29.68 in1005.1 mb 0.00 in0.0 mm 0.00 in0.0 mm 0.00 in0.0 mm
10:37 PM 47.1°F8.4°C 45.7°F7.6°C 94% 3.2 mph N5.1 kmh N 12.1 mph19.5 kmh 29.69 in1005.4 mb 0.00 in0.0 mm 0.00 in0.0 mm 0.00 in0.0 mm
11:08 PM 46.9°F8.3°C 45.4°F7.4°C 94% 1.2 mph N1.9 kmh N 5.6 mph9.0 kmh 29.69 in1005.4 mb 0.00 in0.0 mm 0.00 in0.0 mm 0.00 in0.0 mm
11:37 PM 46.5°F8.1°C 45.5°F7.5°C 96% 0.2 mph N0.3 kmh N 7.5 mph12.1 kmh 29.70 in1005.8 mb 0.00 in0.0 mm 0.00 in0.0 mm 0.00 in0.0 mm